createdAt,value
2022-10-10T00:00:12.530Z,2.50
2022-10-10T00:02:38.982Z,2.40
2022-10-10T00:05:05.915Z,2.40
2022-10-10T00:07:32.343Z,2.37
2022-10-10T00:09:58.803Z,2.40
2022-10-10T00:12:25.479Z,2.80
2022-10-10T00:14:52.136Z,2.20
2022-10-10T00:17:18.625Z,2.40
2022-10-10T00:19:45.079Z,2.30
2022-10-10T00:22:11.562Z,2.30
2022-10-10T00:24:38.208Z,2.00
2022-10-10T00:27:04.693Z,2.23
2022-10-10T00:29:31.209Z,2.30
2022-10-10T00:31:57.590Z,2.70
2022-10-10T00:34:24.240Z,2.30
2022-10-10T00:36:50.836Z,2.17
2022-10-10T00:39:17.354Z,2.40
2022-10-10T00:41:43.756Z,2.20
2022-10-10T00:44:12.822Z,2.40
2022-10-10T00:46:39.992Z,2.27
2022-10-10T00:49:14.430Z,2.40
2022-10-10T00:51:42.286Z,2.30
2022-10-10T00:54:11.210Z,2.60
2022-10-10T00:56:46.481Z,2.20
2022-10-10T00:59:14.690Z,2.40
2022-10-10T01:01:41.621Z,2.43
2022-10-10T01:04:45.461Z,3.10
2022-10-10T01:07:21.944Z,2.60
2022-10-10T01:09:52.358Z,2.63
2022-10-10T01:12:25.885Z,2.40
2022-10-10T01:14:52.595Z,2.80
2022-10-10T01:17:28.840Z,2.67
2022-10-10T01:20:13.555Z,2.37
2022-10-10T01:23:17.667Z,2.60
2022-10-10T01:26:12.412Z,2.40
2022-10-10T01:28:48.032Z,2.50
2022-10-10T01:31:17.322Z,2.30
2022-10-10T01:33:49.764Z,2.60
2022-10-10T01:36:43.088Z,2.57
2022-10-10T01:39:21.161Z,3.00
2022-10-10T01:41:56.516Z,2.40
2022-10-10T01:44:22.989Z,2.90
2022-10-10T01:46:49.445Z,3.13
2022-10-10T01:49:16.472Z,2.37
2022-10-10T01:52:02.293Z,2.40
2022-10-10T01:54:40.938Z,2.70
2022-10-10T01:57:39.763Z,2.10
2022-10-10T02:00:15.406Z,2.40
2022-10-10T02:02:52.343Z,2.67
2022-10-10T02:05:43.954Z,2.40
2022-10-10T02:08:16.019Z,2.57
2022-10-10T02:10:47.288Z,2.43
2022-10-10T02:13:16.574Z,2.97
2022-10-10T02:15:47.788Z,2.50
2022-10-10T02:18:18.422Z,2.70
2022-10-10T02:20:45.815Z,2.40
2022-10-10T02:23:16.544Z,2.43
2022-10-10T02:25:47.533Z,2.43
2022-10-10T02:28:25.946Z,2.23
2022-10-10T02:30:57.655Z,2.60
2022-10-10T02:33:31.900Z,2.40
2022-10-10T02:36:00.237Z,2.50
2022-10-10T02:38:30.528Z,2.23
2022-10-10T02:40:58.864Z,2.33
2022-10-10T02:43:25.846Z,2.43
2022-10-10T02:45:52.293Z,2.77
2022-10-10T02:48:18.863Z,2.40
2022-10-10T02:50:45.480Z,2.17
2022-10-10T02:53:11.951Z,2.43
2022-10-10T02:55:38.642Z,2.77
2022-10-10T02:58:05.553Z,2.40
2022-10-10T03:00:32.027Z,2.37
2022-10-10T03:02:58.493Z,2.50
2022-10-10T03:05:24.926Z,4.10
2022-10-10T03:07:51.349Z,3.10
2022-10-10T03:10:17.907Z,2.50
2022-10-10T03:12:44.416Z,3.00
2022-10-10T03:15:12.118Z,2.90
2022-10-10T03:17:39.574Z,2.80
2022-10-10T03:20:07.128Z,2.63
2022-10-10T03:22:33.673Z,2.93
2022-10-10T03:25:00.126Z,2.97
2022-10-10T03:27:27.046Z,2.30
2022-10-10T03:29:53.834Z,2.40
2022-10-10T03:32:20.312Z,2.10
2022-10-10T03:34:46.781Z,2.43
2022-10-10T03:37:13.248Z,2.80
2022-10-10T03:39:39.892Z,2.60
2022-10-10T03:42:06.699Z,2.80
2022-10-10T03:44:33.337Z,3.00
2022-10-10T03:46:59.802Z,3.00
2022-10-10T03:49:26.606Z,3.20
2022-10-10T03:51:53.696Z,3.10
2022-10-10T03:54:20.554Z,3.33
2022-10-10T03:56:47.594Z,3.27
2022-10-10T03:59:14.120Z,3.03
2022-10-10T04:01:40.986Z,3.20
2022-10-10T04:04:07.545Z,2.90
2022-10-10T04:06:34.252Z,3.00
2022-10-10T04:09:00.972Z,3.60
2022-10-10T04:11:27.495Z,3.40
2022-10-10T04:13:53.969Z,3.17
2022-10-10T04:16:20.661Z,3.10
2022-10-10T04:18:47.139Z,3.30
2022-10-10T04:21:13.883Z,3.00
2022-10-10T04:23:41.268Z,3.13
2022-10-10T04:26:08.361Z,3.53
2022-10-10T04:28:36.545Z,3.23
2022-10-10T04:31:05.611Z,3.40
2022-10-10T04:33:32.073Z,3.37
2022-10-10T04:35:58.506Z,3.33
2022-10-10T04:38:25.036Z,3.27
2022-10-10T04:40:51.817Z,3.47
2022-10-10T04:43:18.592Z,3.23
2022-10-10T04:45:45.632Z,2.87
2022-10-10T04:48:12.283Z,3.00
2022-10-10T04:50:38.859Z,3.07
2022-10-10T04:53:05.661Z,2.77
2022-10-10T04:55:32.087Z,3.10
2022-10-10T04:57:58.643Z,2.80
2022-10-10T05:00:25.153Z,2.83
2022-10-10T05:02:51.761Z,3.20
2022-10-10T05:05:18.865Z,2.53
2022-10-10T05:07:45.356Z,2.73
2022-10-10T05:10:11.790Z,3.30
2022-10-10T05:12:38.500Z,2.57
2022-10-10T05:15:05.610Z,2.90
2022-10-10T05:17:32.116Z,3.10
2022-10-10T05:19:58.777Z,3.47
2022-10-10T05:22:25.726Z,2.93
2022-10-10T05:24:52.289Z,3.30
2022-10-10T05:27:18.753Z,3.07
2022-10-10T05:29:45.219Z,3.20
2022-10-10T05:32:11.641Z,3.40
2022-10-10T05:34:38.433Z,3.10
2022-10-10T05:37:05.105Z,3.10
2022-10-10T05:39:31.881Z,3.13
2022-10-10T05:41:58.465Z,3.10
2022-10-10T05:44:25.207Z,2.73
2022-10-10T05:46:51.748Z,2.70
2022-10-10T05:49:18.338Z,3.20
2022-10-10T05:51:44.743Z,2.80
2022-10-10T05:54:11.461Z,3.07
2022-10-10T05:56:38.173Z,3.07
2022-10-10T05:59:04.859Z,3.83
2022-10-10T06:01:31.689Z,3.30
2022-10-10T06:03:58.180Z,3.70
2022-10-10T06:06:26.134Z,3.03
2022-10-10T06:08:53.450Z,3.27
2022-10-10T06:11:20.635Z,3.10
2022-10-10T06:13:49.663Z,3.10
2022-10-10T06:16:16.564Z,3.17
2022-10-10T06:18:43.147Z,3.10
2022-10-10T06:21:11.101Z,3.00
2022-10-10T06:23:37.901Z,3.00
2022-10-10T06:26:04.587Z,3.20
2022-10-10T06:28:31.455Z,3.40
2022-10-10T06:31:03.259Z,3.07
2022-10-10T06:33:29.871Z,3.20
2022-10-10T06:35:56.625Z,3.40
2022-10-10T06:38:23.805Z,3.60
2022-10-10T06:40:50.612Z,3.17
2022-10-10T06:43:17.574Z,3.37
2022-10-10T06:45:47.126Z,3.03
2022-10-10T06:48:14.762Z,3.87
2022-10-10T06:50:41.510Z,2.93
2022-10-10T06:53:08.305Z,3.30
2022-10-10T06:55:34.812Z,3.30
2022-10-10T06:58:01.290Z,2.83
2022-10-10T07:00:27.791Z,3.00
2022-10-10T07:02:54.409Z,3.00
2022-10-10T07:05:21.006Z,3.50
2022-10-10T07:07:47.471Z,3.20
2022-10-10T07:10:15.582Z,3.13
2022-10-10T07:12:44.687Z,3.20
2022-10-10T07:15:12.055Z,3.03
2022-10-10T07:17:39.131Z,2.90
2022-10-10T07:20:07.009Z,3.13
2022-10-10T07:22:33.789Z,3.20
2022-10-10T07:25:00.367Z,3.43
2022-10-10T07:27:28.295Z,3.27
2022-10-10T07:29:54.863Z,3.40
2022-10-10T07:32:21.444Z,3.17
2022-10-10T07:34:47.897Z,3.20
2022-10-10T07:37:14.461Z,3.27
2022-10-10T07:39:41.041Z,3.00
2022-10-10T07:42:07.491Z,3.50
2022-10-10T07:44:34.926Z,3.60
2022-10-10T07:47:04.605Z,3.93
2022-10-10T07:49:31.039Z,3.90
2022-10-10T07:51:59.039Z,2.97
2022-10-10T07:54:28.689Z,3.27
2022-10-10T07:56:55.563Z,3.50
2022-10-10T07:59:22.746Z,4.77
2022-10-10T08:01:49.979Z,4.53
2022-10-10T08:04:17.166Z,4.63
2022-10-10T08:06:43.756Z,3.70
2022-10-10T08:09:10.878Z,2.80
2022-10-10T08:11:37.453Z,3.60
2022-10-10T08:14:04.269Z,2.90
2022-10-10T08:16:31.010Z,3.10
2022-10-10T08:18:57.793Z,3.00
2022-10-10T08:21:24.653Z,2.30
2022-10-10T08:23:51.114Z,3.80
2022-10-10T08:26:19.754Z,4.87
2022-10-10T08:28:48.432Z,3.27
2022-10-10T08:31:18.390Z,4.20
2022-10-10T08:33:46.398Z,6.37
2022-10-10T08:36:23.542Z,4.73
2022-10-10T08:38:52.577Z,2.97
2022-10-10T08:41:51.822Z,2.70
2022-10-10T08:44:46.387Z,3.03
2022-10-10T08:47:18.295Z,3.10
2022-10-10T08:49:55.761Z,2.80
2022-10-10T08:52:32.226Z,3.10
2022-10-10T08:55:02.706Z,3.47
2022-10-10T08:57:34.561Z,3.30
2022-10-10T09:00:05.868Z,2.90
2022-10-10T09:02:53.275Z,3.63
2022-10-10T09:05:47.638Z,4.50
2022-10-10T09:08:34.739Z,2.97
2022-10-10T09:11:04.324Z,2.80
2022-10-10T09:13:37.208Z,3.50
2022-10-10T09:16:36.825Z,3.17
2022-10-10T09:19:24.759Z,4.80
2022-10-10T09:22:02.811Z,2.90
2022-10-10T09:24:48.513Z,7.03
2022-10-10T09:27:24.791Z,2.90
2022-10-10T09:29:58.019Z,2.93
2022-10-10T09:32:30.868Z,3.10
2022-10-10T09:35:05.806Z,2.70
2022-10-10T09:37:47.391Z,2.97
2022-10-10T09:40:25.912Z,7.73
2022-10-10T09:42:52.538Z,3.13
2022-10-10T09:45:23.588Z,3.70
2022-10-10T09:47:54.011Z,4.40
2022-10-10T09:50:21.465Z,3.77
2022-10-10T09:52:48.775Z,2.97
2022-10-10T09:55:37.177Z,2.80
2022-10-10T09:58:41.282Z,2.70
2022-10-10T10:01:17.573Z,2.80
2022-10-10T10:03:44.802Z,2.57
2022-10-10T10:06:14.819Z,2.73
2022-10-10T10:08:42.857Z,2.67
2022-10-10T10:11:32.728Z,2.60
2022-10-10T10:14:02.478Z,2.40
2022-10-10T10:16:39.758Z,3.17
2022-10-10T10:19:33.656Z,2.70
2022-10-10T10:22:00.329Z,2.83
2022-10-10T10:24:36.265Z,3.20
2022-10-10T10:27:14.835Z,2.90
2022-10-10T10:29:46.843Z,3.10
2022-10-10T10:32:22.468Z,2.90
2022-10-10T10:35:09.571Z,3.03
2022-10-10T10:37:57.984Z,2.80
2022-10-10T10:40:44.450Z,3.23
2022-10-10T10:43:41.679Z,6.57
2022-10-10T10:46:24.397Z,3.40
2022-10-10T10:49:29.626Z,3.17
2022-10-10T10:52:10.057Z,2.80
2022-10-10T10:54:52.989Z,2.77
2022-10-10T10:58:28.338Z,2.97
2022-10-10T11:01:24.005Z,3.30
2022-10-10T11:05:16.183Z,3.30
2022-10-10T11:07:18.912Z,2.80
2022-10-10T11:09:50.867Z,3.43
2022-10-10T11:12:29.416Z,3.40
2022-10-10T11:15:10.658Z,3.10
2022-10-10T11:17:41.205Z,3.07
2022-10-10T11:20:16.747Z,3.40
2022-10-10T11:23:22.461Z,3.60
2022-10-10T11:26:00.344Z,3.50
2022-10-10T11:28:52.556Z,3.03
2022-10-10T11:31:31.796Z,3.23
2022-10-10T11:34:06.921Z,3.67
2022-10-10T11:36:38.834Z,2.87
2022-10-10T11:39:15.789Z,3.30
2022-10-10T11:42:02.779Z,3.70
2022-10-10T11:44:38.995Z,3.60
2022-10-10T11:47:15.451Z,3.47
2022-10-10T11:50:13.335Z,3.37
2022-10-10T11:52:54.533Z,3.43
2022-10-10T11:55:36.800Z,3.53
2022-10-10T11:58:06.572Z,3.73
2022-10-10T12:00:43.107Z,3.23
2022-10-10T12:03:10.494Z,3.20
2022-10-10T12:05:41.172Z,2.90
2022-10-10T12:08:18.003Z,3.20
2022-10-10T12:10:53.589Z,3.00
2022-10-10T12:13:35.111Z,3.03
2022-10-10T12:16:10.319Z,3.30
2022-10-10T12:19:13.405Z,2.87
2022-10-10T12:21:56.501Z,3.23
2022-10-10T12:24:25.784Z,3.10
2022-10-10T12:26:54.981Z,3.07
2022-10-10T12:30:09.253Z,2.90
2022-10-10T12:32:46.628Z,2.80
2022-10-10T12:35:33.376Z,2.70
2022-10-10T12:38:10.037Z,2.83
2022-10-10T12:41:02.441Z,2.60
2022-10-10T12:43:45.715Z,2.80
2022-10-10T12:46:23.567Z,2.53
2022-10-10T12:49:21.045Z,2.70
2022-10-10T12:52:11.993Z,2.70
2022-10-10T12:54:42.693Z,2.53
2022-10-10T12:57:28.869Z,2.70
2022-10-10T12:59:59.851Z,2.73
2022-10-10T13:02:28.489Z,3.00
2022-10-10T13:04:58.914Z,2.57
2022-10-10T13:07:26.358Z,2.90
2022-10-10T13:09:55.041Z,2.60
2022-10-10T13:12:30.159Z,3.03
2022-10-10T13:14:57.385Z,2.77
2022-10-10T13:17:29.638Z,3.70
2022-10-10T13:19:57.766Z,3.03
2022-10-10T13:22:25.686Z,3.33
2022-10-10T13:24:53.053Z,3.00
2022-10-10T13:27:25.724Z,3.03
2022-10-10T13:29:54.387Z,2.43
2022-10-10T13:32:35.921Z,3.00
2022-10-10T13:35:08.010Z,3.00
2022-10-10T13:37:35.413Z,3.33
2022-10-10T13:40:03.177Z,2.90
2022-10-10T13:42:38.247Z,3.20
2022-10-10T13:45:30.339Z,3.60
2022-10-10T13:48:00.175Z,3.30
2022-10-10T13:50:34.819Z,3.27
2022-10-10T13:53:29.179Z,3.57
2022-10-10T13:56:15.974Z,3.70
2022-10-10T13:58:50.453Z,3.03
2022-10-10T14:01:32.258Z,3.63
2022-10-10T14:04:05.766Z,3.83
2022-10-10T14:06:33.004Z,3.67
2022-10-10T14:09:17.044Z,3.53
2022-10-10T14:11:43.750Z,3.77
2022-10-10T14:14:20.873Z,3.87
2022-10-10T14:16:58.029Z,3.10
2022-10-10T14:19:24.646Z,3.40
2022-10-10T14:21:51.249Z,3.43
2022-10-10T14:24:17.747Z,3.67
2022-10-10T14:26:44.162Z,3.73
2022-10-10T14:29:14.284Z,4.07
2022-10-10T14:31:41.537Z,3.60
2022-10-10T14:34:11.635Z,3.73
2022-10-10T14:36:41.986Z,3.90
2022-10-10T14:39:13.009Z,3.80
2022-10-10T14:41:39.473Z,3.67
2022-10-10T14:44:06.040Z,4.00
2022-10-10T14:46:32.515Z,4.00
2022-10-10T14:48:58.958Z,3.27
2022-10-10T14:51:33.525Z,3.93
2022-10-10T14:54:10.994Z,3.53
2022-10-10T14:57:06.529Z,3.60
2022-10-10T14:59:47.685Z,3.60
2022-10-10T15:02:15.029Z,3.90
2022-10-10T15:04:41.494Z,3.63
2022-10-10T15:07:14.782Z,3.47
2022-10-10T15:12:37.343Z,3.73
2022-10-10T15:15:04.873Z,3.60
2022-10-10T15:17:34.474Z,3.47
2022-10-10T15:20:02.306Z,3.37
2022-10-10T15:22:30.232Z,3.80
2022-10-10T15:24:56.736Z,4.00
2022-10-10T15:27:23.505Z,3.90
2022-10-10T15:29:50.043Z,3.63
2022-10-10T15:32:16.547Z,4.33
2022-10-10T15:34:42.989Z,3.93
2022-10-10T15:37:10.441Z,3.63
2022-10-10T15:39:37.497Z,4.07
2022-10-10T15:42:13.269Z,3.80
2022-10-10T15:44:46.237Z,3.67
2022-10-10T15:47:14.770Z,4.00
2022-10-10T15:49:41.886Z,3.70
2022-10-10T15:52:09.817Z,3.80
2022-10-10T15:54:36.432Z,3.17
2022-10-10T15:57:03.340Z,3.37
2022-10-10T15:59:30.279Z,3.67
2022-10-10T16:01:56.816Z,3.80
2022-10-10T16:04:23.646Z,3.80
2022-10-10T16:06:54.561Z,4.17
2022-10-10T16:09:33.421Z,4.07
2022-10-10T16:12:00.420Z,3.53
2022-10-10T16:14:28.339Z,3.70
2022-10-10T16:16:54.893Z,3.90
2022-10-10T16:19:21.413Z,3.33
2022-10-10T16:21:47.943Z,3.40
2022-10-10T16:24:14.695Z,3.47
2022-10-10T16:26:41.557Z,3.53
2022-10-10T16:29:10.239Z,3.53
2022-10-10T16:31:39.091Z,3.33
2022-10-10T16:34:07.552Z,3.27
2022-10-10T16:36:36.585Z,3.33
2022-10-10T16:39:04.305Z,3.47
2022-10-10T16:41:47.683Z,3.80
2022-10-10T16:44:15.809Z,3.03
2022-10-10T16:46:42.295Z,3.30
2022-10-10T16:49:11.669Z,3.17
2022-10-10T16:51:38.192Z,3.23
2022-10-10T16:54:05.983Z,3.23
2022-10-10T16:56:32.889Z,3.40
2022-10-10T16:59:00.092Z,3.67
2022-10-10T17:01:28.740Z,4.80
2022-10-10T17:03:57.387Z,4.43
2022-10-10T17:06:24.013Z,4.83
2022-10-10T17:08:52.867Z,9.93
2022-10-10T17:11:21.718Z,11.80
2022-10-10T17:13:50.020Z,5.87
2022-10-10T17:16:59.694Z,5.57
2022-10-10T17:19:08.862Z,5.80
2022-10-10T17:21:35.999Z,5.90
2022-10-10T17:24:02.520Z,6.53
2022-10-10T17:26:29.012Z,6.03
2022-10-10T17:28:57.447Z,6.03
2022-10-10T17:31:25.523Z,6.27
2022-10-10T17:33:54.408Z,7.07
2022-10-10T17:36:25.157Z,6.80
2022-10-10T17:38:52.625Z,7.67
2022-10-10T17:41:20.610Z,6.70
2022-10-10T17:43:47.724Z,10.47
2022-10-10T17:49:06.714Z,7.60
2022-10-10T17:51:34.950Z,7.90
2022-10-10T17:54:03.143Z,7.90
2022-10-10T17:56:29.892Z,8.90
2022-10-10T17:58:56.441Z,8.43
2022-10-10T18:01:23.343Z,9.00
2022-10-10T18:03:50.200Z,9.57
2022-10-10T18:06:20.428Z,9.33
2022-10-10T18:08:48.473Z,8.03
2022-10-10T18:11:17.263Z,8.67
2022-10-10T18:13:44.434Z,9.87
2022-10-10T18:16:13.588Z,10.27
2022-10-10T18:18:43.079Z,11.10
2022-10-10T18:21:13.316Z,10.53
2022-10-10T18:23:42.238Z,11.10
2022-10-10T18:26:15.092Z,10.63
2022-10-10T18:28:42.583Z,11.57
2022-10-10T18:31:14.105Z,12.00
2022-10-10T18:33:41.597Z,12.00
2022-10-10T18:36:09.138Z,12.07
2022-10-10T18:38:35.980Z,11.47
2022-10-10T18:41:07.667Z,9.63
2022-10-10T18:43:34.922Z,9.03
2022-10-10T18:46:05.246Z,7.73
2022-10-10T18:48:32.381Z,7.23
2022-10-10T18:51:21.601Z,6.73
2022-10-10T18:53:48.541Z,5.50
2022-10-10T18:56:21.064Z,5.50
2022-10-10T18:58:47.655Z,5.10
2022-10-10T19:01:15.444Z,4.60
2022-10-10T19:03:42.804Z,3.77
2022-10-10T19:06:12.485Z,3.90
2022-10-10T19:08:40.121Z,4.27
2022-10-10T19:11:08.495Z,4.37
2022-10-10T19:13:35.244Z,4.17
2022-10-10T19:16:06.317Z,3.77
2022-10-10T19:18:33.952Z,3.83
2022-10-10T19:21:02.838Z,3.30
2022-10-10T19:23:30.887Z,3.03
2022-10-10T19:26:02.290Z,2.93
2022-10-10T19:28:28.885Z,2.63
2022-10-10T19:30:55.706Z,3.37
2022-10-10T19:33:22.310Z,3.00
2022-10-10T19:35:52.068Z,3.50
2022-10-10T19:38:19.247Z,3.37
2022-10-10T19:40:47.483Z,3.67
2022-10-10T19:43:15.410Z,4.47
2022-10-10T19:45:51.270Z,3.57
2022-10-10T19:48:22.196Z,3.50
2022-10-10T19:50:49.011Z,3.63
2022-10-10T19:53:17.754Z,4.03
2022-10-10T19:55:55.905Z,3.63
2022-10-10T19:58:22.435Z,2.77
2022-10-10T20:00:48.917Z,3.00
2022-10-10T20:03:15.507Z,3.07
2022-10-10T20:05:41.976Z,2.67
2022-10-10T20:08:08.672Z,2.60
2022-10-10T20:10:36.012Z,2.90
2022-10-10T20:13:02.461Z,2.87
2022-10-10T20:15:28.985Z,2.70
2022-10-10T20:17:55.399Z,3.00
2022-10-10T20:20:21.981Z,2.97
2022-10-10T20:22:48.558Z,2.90
2022-10-10T20:25:15.066Z,2.93
2022-10-10T20:27:41.496Z,3.17
2022-10-10T20:30:08.662Z,2.73
2022-10-10T20:32:35.196Z,2.90
2022-10-10T20:35:02.430Z,2.87
2022-10-10T20:37:28.961Z,3.13
2022-10-10T20:39:55.450Z,2.97
2022-10-10T20:42:22.006Z,3.10
2022-10-10T20:44:49.493Z,3.00
2022-10-10T20:47:15.974Z,3.60
2022-10-10T20:49:42.429Z,3.70
2022-10-10T20:52:08.980Z,3.67
2022-10-10T20:54:36.457Z,3.83
2022-10-10T20:57:02.999Z,3.63
2022-10-10T20:59:29.762Z,2.80
2022-10-10T21:01:56.394Z,3.30
2022-10-10T21:04:24.384Z,4.03
2022-10-10T21:06:50.827Z,3.23
2022-10-10T21:09:17.333Z,3.50
2022-10-10T21:11:46.508Z,3.33
2022-10-10T21:14:15.370Z,3.00
2022-10-10T21:16:41.846Z,3.63
2022-10-10T21:19:10.260Z,3.30
2022-10-10T21:21:37.518Z,3.40
2022-10-10T21:24:07.161Z,3.30
2022-10-10T21:26:33.751Z,3.20
2022-10-10T21:29:03.266Z,3.40
2022-10-10T21:31:36.917Z,3.60
2022-10-10T21:34:05.950Z,3.33
2022-10-10T21:36:33.686Z,3.57
2022-10-10T21:39:02.649Z,3.80
2022-10-10T21:41:29.233Z,3.20
2022-10-10T21:43:58.168Z,3.40
2022-10-10T21:46:33.578Z,3.80
2022-10-10T21:49:07.586Z,3.40
2022-10-10T21:51:39.189Z,3.60
2022-10-10T21:54:07.003Z,3.60
2022-10-10T21:56:34.118Z,3.80
2022-10-10T21:59:01.617Z,3.57
2022-10-10T22:01:28.726Z,3.57
2022-10-10T22:03:56.343Z,3.60
2022-10-10T22:06:24.854Z,4.60
2022-10-10T22:08:54.284Z,3.47
2022-10-10T22:11:23.791Z,3.83
2022-10-10T22:13:50.905Z,3.50
2022-10-10T22:16:18.909Z,3.33
2022-10-10T22:18:45.356Z,3.40
2022-10-10T22:21:15.108Z,3.90
2022-10-10T22:23:42.338Z,3.23
2022-10-10T22:26:11.435Z,3.40
2022-10-10T22:28:38.500Z,7.37
2022-10-10T22:31:07.062Z,8.33
2022-10-10T22:33:34.899Z,4.27
2022-10-10T22:36:03.040Z,3.83
2022-10-10T22:38:30.049Z,3.53
2022-10-10T22:40:56.607Z,3.47
2022-10-10T22:43:26.793Z,3.63
2022-10-10T22:45:53.968Z,3.43
2022-10-10T22:48:20.585Z,3.27
2022-10-10T22:50:47.119Z,3.67
2022-10-10T22:53:13.632Z,3.73
2022-10-10T22:55:40.151Z,3.60
2022-10-10T22:58:06.999Z,3.23
2022-10-10T23:00:33.654Z,3.73
2022-10-10T23:03:00.192Z,3.50
2022-10-10T23:05:26.912Z,3.80
2022-10-10T23:07:53.447Z,3.33
2022-10-10T23:10:19.900Z,3.63
2022-10-10T23:12:46.420Z,3.00
2022-10-10T23:15:13.595Z,3.43
2022-10-10T23:17:40.087Z,3.37
2022-10-10T23:20:07.548Z,3.73
2022-10-10T23:22:34.112Z,2.97
2022-10-10T23:25:00.733Z,10.40
2022-10-10T23:27:27.221Z,5.37
2022-10-10T23:29:53.614Z,3.20
2022-10-10T23:32:20.110Z,3.20
2022-10-10T23:34:46.486Z,3.53
2022-10-10T23:37:13.071Z,3.40
2022-10-10T23:39:42.627Z,3.37
2022-10-10T23:42:09.099Z,3.90
2022-10-10T23:44:35.860Z,3.20
2022-10-10T23:47:04.923Z,2.87
2022-10-10T23:49:31.393Z,3.30
2022-10-10T23:51:57.801Z,3.40
2022-10-10T23:54:24.603Z,3.47
2022-10-10T23:56:51.054Z,3.00
2022-10-10T23:59:17.754Z,3.50
